Drake Field
KFYV : now visible

Airfield :











YOU CAN JOIN US ON...

 
LOGIN :

Register | Disclaimer

   EN    FR    IT 

 









Legend :    VFR   Marginal VFR   IFR   Intensive IFR   Very Intensive IFR
Visi :
Ceiling :
>= 8 km
>= 3000ft
5 to 8 km
1000 to 3000 ft
1500m to 5 km
500 to 1000 ft
800 to 1500m
200 to 500 ft
< 800m
< 200 ft
Symbols :   Thunderstorms  Fog  Heavy snow  Heavy precipitations  Wind > 20 kt






- Airport Elevation : 1251 ft
- IATA code : FYV


KFYV - Drake Field

CURRENT METAR :
  • 301653Z 00000KT 10SM CLR 13/M01 A3032 RMK AO2 SLP272 T01281011 $

EXPIRED METARs :
  • 301553Z 00000KT 10SM CLR 09/04 A3033 RMK AO2 SLP275 T00890039 $
  • 301453Z 00000KT 10SM CLR 04/04 A3034 RMK AO2 SLP279 I3001 T00440039 53015 $
  • 301403Z 00000KT 6SM BR SCT002 01/00 A3033 RMK AO2 T00060000 $
  • 301359Z 17003KT 2 1/2SM BR BKN002 00/00 A3033 RMK AO2 T00000000 $

TAF KFYV
Valid from the 30 at 14:00 until the 31 at 12:00 UTC


301358Z 3014/3112 00000KT 4SM BR SCT002
TEMPO 3014/3015 1SM BR BKN002
FM301500 16003KT P6SM SKC
KZME FIR / North America



MET'MAP, your aeronautical weather chart ! - Copyright ORBIFLY December 2007 - Disclaimer

ORBIFLY MET'MAP TEAM :

Programming & Development : Alexandra Zaïnal
Concept & original design : Baudouin d'Aumeries
Assistance for programming : Marc-Olivier Méhu
Technical & hardware support : Manuel Goepfert

Contact : metmap@orbifly.com




SOURCES & CREDITS :

   NOAA       Earth
Advisory